Time;durP1;ratioP1;P1;durP2;ratioP2;P2;SDS_P1;SDS_P2;PMS_P1;PMS_P2;Temp;Humidity;BMP_temperature;BMP_pressure;BME280_temperature;BME280_humidity;BME280_pressure;Samples;Min_cycle;Max_cycle;Signal;HPM_P1;HPM_P2
2023/05/10 00:00:25;;;;;;;20.60;14.05;;;;;;;12.42;100.00;100844.97;5018612;28;20321;-74
2023/05/10 00:02:50;;;;;;;17.50;13.70;;;;;;;12.40;100.00;100847.66;5017898;28;20156;-74
2023/05/10 00:05:16;;;;;;;23.23;16.90;;;;;;;12.38;100.00;100849.53;5022751;28;20328;-74
2023/05/10 00:07:44;;;;;;;23.50;15.45;;;;;;;12.35;100.00;100849.69;5026311;28;20037;-72
2023/05/10 00:10:10;;;;;;;28.40;16.80;;;;;;;12.34;100.00;100853.22;5037261;28;20071;-72
2023/05/10 00:12:36;;;;;;;20.77;15.23;;;;;;;12.33;100.00;100843.63;5030884;28;20038;-72
2023/05/10 00:15:02;;;;;;;21.30;15.18;;;;;;;12.32;100.00;100841.09;5019139;28;20340;-71
2023/05/10 00:17:28;;;;;;;19.77;14.95;;;;;;;12.32;100.00;100838.47;5017860;28;20038;-71
2023/05/10 00:19:54;;;;;;;22.55;15.75;;;;;;;12.32;100.00;100839.31;5016807;28;20072;-71
2023/05/10 00:22:19;;;;;;;25.50;16.58;;;;;;;12.30;100.00;100841.19;5016678;28;20080;-71
2023/05/10 00:24:44;;;;;;;20.77;15.45;;;;;;;12.31;100.00;100850.72;5015925;28;20050;-71
2023/05/10 00:27:10;;;;;;;25.80;17.77;;;;;;;12.30;100.00;100846.44;5016533;28;20037;-71
2023/05/10 00:29:35;;;;;;;20.13;15.35;;;;;;;12.30;100.00;100843.81;5016661;28;20034;-71
2023/05/10 00:32:01;;;;;;;20.02;15.23;;;;;;;12.31;100.00;100848.09;5016121;28;20033;-72
2023/05/10 00:34:27;;;;;;;18.23;13.10;;;;;;;12.31;100.00;100837.59;5016746;28;20064;-72
2023/05/10 00:36:52;;;;;;;17.90;13.93;;;;;;;12.32;100.00;100844.56;5018962;28;20357;-72
2023/05/10 00:39:17;;;;;;;17.67;14.15;;;;;;;12.32;100.00;100836.69;5019020;28;20045;-72
2023/05/10 00:41:43;;;;;;;28.08;19.20;;;;;;;12.32;100.00;100841.94;5016228;28;20034;-72
2023/05/10 00:44:08;;;;;;;22.23;16.83;;;;;;;12.32;100.00;100841.94;5016853;28;20359;-74
2023/05/10 00:46:34;;;;;;;21.38;15.45;;;;;;;12.31;100.00;100834.13;5015999;28;20105;-74
2023/05/10 00:49:00;;;;;;;18.70;14.95;;;;;;;12.31;100.00;100834.97;5016954;28;20041;-74
2023/05/10 00:51:25;;;;;;;21.60;14.95;;;;;;;12.32;100.00;100843.72;5017185;28;20101;-72
2023/05/10 00:53:51;;;;;;;21.95;16.58;;;;;;;12.31;100.00;100842.84;5017176;28;20270;-72
2023/05/10 00:56:17;;;;;;;20.20;15.73;;;;;;;12.32;100.00;100848.97;5017299;28;20029;-72
2023/05/10 00:58:43;;;;;;;21.60;16.70;;;;;;;12.31;100.00;100856.00;5017234;28;20144;-72
2023/05/10 01:01:09;;;;;;;23.88;16.13;;;;;;;12.31;100.00;100849.91;5017544;28;20053;-72
2023/05/10 01:03:35;;;;;;;32.63;19.13;;;;;;;12.29;100.00;100857.84;5016879;28;20022;-72
2023/05/10 01:06:01;;;;;;;35.53;20.50;;;;;;;12.28;100.00;100864.03;5017453;28;20222;-72
2023/05/10 01:08:27;;;;;;;42.40;23.35;;;;;;;12.26;100.00;100866.72;5018341;28;20105;-72
2023/05/10 01:10:53;;;;;;;37.38;20.88;;;;;;;12.24;100.00;100865.94;5017372;28;20352;-72
2023/05/10 01:13:39;;;;;;;35.30;20.10;;;;;;;12.23;100.00;100860.78;5017333;28;20034;-72
2023/05/10 01:16:06;;;;;;;28.45;17.33;;;;;;;12.24;100.00;100859.81;5017536;28;20048;-72
2023/05/10 01:18:34;;;;;;;36.95;20.75;;;;;;;12.24;100.00;100858.06;5017266;28;20034;-72
2023/05/10 01:21:19;;;;;;;29.55;17.60;;;;;;;12.25;100.00;100861.53;5017258;28;20034;-72
2023/05/10 01:23:53;;;;;;;35.40;19.65;;;;;;;12.26;100.00;100871.09;5013957;28;20026;-72
2023/05/10 01:27:01;;;;;;;30.00;17.55;;;;;;;12.25;100.00;100870.25;5016373;28;20268;-71
2023/05/10 01:29:48;;;;;;;27.15;16.90;;;;;;;12.26;100.00;100871.97;5016076;28;20064;-71
2023/05/10 01:32:22;;;;;;;29.20;16.73;;;;;;;12.27;100.00;100871.03;5015908;28;20107;-72
2023/05/10 01:35:06;;;;;;;27.00;16.77;;;;;;;12.27;100.00;100870.19;5016299;28;20299;-72
2023/05/10 01:37:45;;;;;;;34.50;18.83;;;;;;;12.26;100.00;100871.97;5018766;28;20046;-72
2023/05/10 01:40:23;;;;;;;24.55;16.13;;;;;;;12.27;100.00;100873.66;5019533;28;20375;-72
2023/05/10 01:42:53;;;;;;;;;;;;;;;12.27;100.00;100876.28;5019751;28;20049;-72
2023/05/10 01:45:27;;;;;;;26.45;15.90;;;;;;;12.27;100.00;100884.16;5020392;28;19924;-72
2023/05/10 01:48:06;;;;;;;28.40;15.50;;;;;;;12.27;100.00;100885.94;5019762;28;20030;-72
2023/05/10 01:50:34;;;;;;;28.40;15.90;;;;;;;12.27;100.00;100885.94;5019179;28;20273;-72
2023/05/10 01:53:01;;;;;;;24.80;14.98;;;;;;;12.28;100.00;100892.91;5016494;28;20263;-72
2023/05/10 01:55:32;;;;;;;29.02;16.40;;;;;;;12.28;100.00;100892.91;5033196;28;20104;-72
2023/05/10 01:58:10;;;;;;;23.90;15.88;;;;;;;12.28;100.00;100892.91;5027677;28;20068;-72
2023/05/10 02:00:39;;;;;;;28.77;17.83;;;;;;;12.28;100.00;100888.50;5020205;28;20264;-72
2023/05/10 02:03:08;;;;;;;25.30;15.43;;;;;;;12.28;100.00;100892.91;5020431;28;20065;-72
2023/05/10 02:05:35;;;;;;;36.67;20.23;;;;;;;12.28;100.00;100891.13;5020399;28;20087;-72
2023/05/10 02:08:02;;;;;;;34.15;19.20;;;;;;;12.28;100.00;100892.91;5020092;28;20105;-74
2023/05/10 02:10:29;;;;;;;27.38;16.95;;;;;;;12.27;100.00;100891.19;5019857;28;20049;-74
2023/05/10 02:12:58;;;;;;;25.80;16.05;;;;;;;12.27;100.00;100899.09;5019762;28;20030;-72
2023/05/10 02:15:25;;;;;;;22.02;13.95;;;;;;;12.28;100.00;100900.78;5020338;28;20037;-70
2023/05/10 02:17:54;;;;;;;23.88;15.55;;;;;;;12.28;100.00;100898.16;5019062;28;20060;-70
2023/05/10 02:20:20;;;;;;;22.13;14.82;;;;;;;12.29;100.00;100899.84;5019538;28;20033;-70
2023/05/10 02:22:48;;;;;;;20.38;13.18;;;;;;;12.28;100.00;100903.41;5019232;28;20397;-70
2023/05/10 02:25:17;;;;;;;21.63;13.90;;;;;;;12.29;100.00;100897.22;5018965;28;20084;-71
2023/05/10 02:27:44;;;;;;;22.40;13.05;;;;;;;12.29;100.00;100902.47;5020723;28;20493;-75
2023/05/10 02:30:11;;;;;;;18.25;12.30;;;;;;;12.30;100.00;100906.81;5021057;28;20029;-75
2023/05/10 02:32:38;;;;;;;15.32;11.25;;;;;;;12.29;100.00;100907.72;5020022;28;20362;-75
2023/05/10 02:35:04;;;;;;;18.10;11.13;;;;;;;12.30;100.00;100906.81;5018398;28;20080;-75
2023/05/10 02:37:30;;;;;;;18.70;11.40;;;;;;;12.31;100.00;100907.66;5020015;28;20590;-75
2023/05/10 02:39:56;;;;;;;14.68;10.38;;;;;;;12.31;100.00;100910.28;5020112;28;20048;-75
2023/05/10 02:42:30;;;;;;;14.80;10.77;;;;;;;12.31;100.00;100911.13;5021180;28;20101;-75
2023/05/10 02:45:18;;;;;;;17.15;10.65;;;;;;;12.32;100.00;100914.63;5018222;28;20042;-73
2023/05/10 02:47:43;;;;;;;15.00;10.63;;;;;;;12.32;100.00;100915.47;5019635;28;20047;-73
2023/05/10 02:50:09;;;;;;;15.30;10.95;;;;;;;12.32;100.00;100915.47;5020284;28;20100;-73
2023/05/10 02:52:54;;;;;;;17.30;11.60;;;;;;;12.33;100.00;100913.69;5020486;28;20331;-73
2023/05/10 02:55:25;;;;;;;14.10;10.73;;;;;;;12.33;100.00;100916.31;5020997;28;20313;-73
2023/05/10 02:57:58;;;;;;;15.05;11.05;;;;;;;12.33;100.00;100917.16;5013655;28;20270;-73
2023/05/10 03:00:24;;;;;;;15.65;11.00;;;;;;;12.34;100.00;100916.25;5002089;28;20038;-73
2023/05/10 03:02:50;;;;;;;14.20;10.70;;;;;;;12.34;100.00;100916.25;5001805;28;20073;-75
2023/05/10 03:05:15;;;;;;;17.25;11.27;;;;;;;12.34;100.00;100912.78;5001286;28;20022;-75
2023/05/10 03:07:41;;;;;;;19.20;12.98;;;;;;;12.34;100.00;100905.75;5000828;28;20109;-75
2023/05/10 03:10:07;;;;;;;36.67;19.90;;;;;;;12.35;100.00;100915.34;5001355;28;20062;-75
2023/05/10 03:12:44;;;;;;;22.33;14.65;;;;;;;12.35;100.00;100909.22;5000783;28;20364;-75
2023/05/10 03:15:31;;;;;;;23.73;14.55;;;;;;;12.35;100.00;100917.97;5001241;28;20042;-75
2023/05/10 03:18:04;;;;;;;18.92;12.85;;;;;;;12.35;100.00;100915.34;5001201;28;20268;-75
2023/05/10 03:20:36;;;;;;;19.15;12.93;;;;;;;12.35;100.00;100912.72;5006994;28;20037;-75
2023/05/10 03:23:13;;;;;;;13.95;11.38;;;;;;;12.35;100.00;100915.34;5016816;28;20375;-75
2023/05/10 03:25:39;;;;;;;15.55;11.55;;;;;;;12.36;100.00;100924.06;5019293;28;20108;-75
2023/05/10 03:28:06;;;;;;;18.40;11.32;;;;;;;12.36;100.00;100924.91;5019319;28;20068;-75
2023/05/10 03:30:31;;;;;;;14.50;11.80;;;;;;;12.36;100.00;100924.06;5018610;28;20034;-75
2023/05/10 03:32:57;;;;;;;22.92;14.85;;;;;;;12.36;100.00;100924.91;5021326;28;20065;-75
2023/05/10 03:35:23;;;;;;;15.80;13.30;;;;;;;12.36;100.00;100924.91;5019136;28;20044;-75
2023/05/10 03:37:49;;;;;;;18.90;12.57;;;;;;;12.36;100.00;100924.91;5019216;28;20037;-75
2023/05/10 03:40:14;;;;;;;15.48;13.18;;;;;;;12.36;100.00;100929.31;5019165;28;20325;-75
2023/05/10 03:42:40;;;;;;;16.98;13.25;;;;;;;12.37;100.00;100931.00;5018378;28;20344;-75
2023/05/10 03:45:06;;;;;;;22.88;15.75;;;;;;;12.35;100.00;100925.84;5019136;28;20088;-73
2023/05/10 03:47:32;;;;;;;18.45;14.73;;;;;;;12.35;100.00;100930.22;5018905;28;20048;-73
2023/05/10 03:49:57;;;;;;;19.95;15.80;;;;;;;12.34;100.00;100923.28;5018681;28;20038;-73
2023/05/10 03:52:23;;;;;;;20.25;15.52;;;;;;;12.33;100.00;100926.81;5018636;28;20030;-73
2023/05/10 03:54:48;;;;;;;19.10;14.23;;;;;;;12.33;100.00;100929.44;5018294;28;20083;-73
2023/05/10 03:57:14;;;;;;;17.52;14.50;;;;;;;12.33;100.00;100922.41;5018337;28;20025;-73
2023/05/10 03:59:39;;;;;;;21.13;15.63;;;;;;;12.32;100.00;100933.84;5018457;28;20064;-73
2023/05/10 04:02:04;;;;;;;21.67;15.90;;;;;;;12.32;100.00;100936.47;5018278;28;20038;-73
2023/05/10 04:04:30;;;;;;;18.77;14.13;;;;;;;12.33;100.00;100943.41;5018765;28;20091;-73
2023/05/10 04:06:55;;;;;;;20.60;14.65;;;;;;;12.32;100.00;100940.91;5018401;28;20052;-73
2023/05/10 04:09:21;;;;;;;22.23;15.95;;;;;;;12.33;100.00;100932.06;5018669;28;20057;-73
2023/05/10 04:11:46;;;;;;;26.45;17.80;;;;;;;12.31;100.00;100939.19;5018202;28;20171;-73
2023/05/10 04:14:11;;;;;;;22.63;15.82;;;;;;;12.29;100.00;100941.88;5018908;28;20042;-73
2023/05/10 04:16:37;;;;;;;21.40;14.77;;;;;;;12.29;100.00;100947.97;5018405;28;20042;-73
2023/05/10 04:19:03;;;;;;;20.77;13.68;;;;;;;12.28;100.00;100948.06;5018649;28;20041;-73
2023/05/10 04:21:29;;;;;;;21.55;14.40;;;;;;;12.28;100.00;100950.69;5018410;28;20034;-73
2023/05/10 04:23:54;;;;;;;33.22;17.15;;;;;;;12.26;100.00;100950.75;5017981;28;20214;-73
2023/05/10 04:26:20;;;;;;;27.73;16.48;;;;;;;12.25;100.00;100949.03;5018499;28;20032;-73
2023/05/10 04:28:45;;;;;;;28.50;15.45;;;;;;;12.26;100.00;100942.00;5018543;28;20052;-73
2023/05/10 04:31:11;;;;;;;23.25;13.73;;;;;;;12.24;100.00;100949.97;5017192;28;20261;-73
2023/05/10 04:33:36;;;;;;;21.52;13.05;;;;;;;12.25;100.00;100953.44;5016687;28;20124;-73
2023/05/10 04:36:03;;;;;;;20.65;13.18;;;;;;;12.26;100.00;100952.50;5018101;28;20042;-73
2023/05/10 04:38:28;;;;;;;23.27;13.38;;;;;;;12.25;100.00;100956.06;5017932;28;20034;-73
2023/05/10 04:40:54;;;;;;;20.92;13.02;;;;;;;12.25;100.00;100956.91;5016755;28;20349;-73
2023/05/10 04:43:20;;;;;;;28.13;14.20;;;;;;;12.24;100.00;100956.97;5018116;28;20048;-73
2023/05/10 04:45:45;;;;;;;21.08;12.50;;;;;;;12.23;100.00;100961.38;5017820;28;20360;-73
2023/05/10 04:48:11;;;;;;;21.90;12.50;;;;;;;12.21;100.00;100957.97;5018022;28;20106;-73
2023/05/10 04:50:37;;;;;;;28.85;14.35;;;;;;;12.20;100.00;100960.69;5018551;28;20345;-73
2023/05/10 04:53:02;;;;;;;37.35;15.05;;;;;;;12.17;100.00;100966.06;5018431;28;20044;-73
2023/05/10 04:55:28;;;;;;;28.85;13.18;;;;;;;12.16;100.00;100970.47;5003280;28;20325;-73
2023/05/10 04:57:56;;;;;;;21.38;11.25;;;;;;;12.16;100.00;100967.84;4999386;28;20053;-73
2023/05/10 05:00:22;;;;;;;19.33;10.13;;;;;;;12.16;100.00;100973.09;4998980;28;20058;-73
2023/05/10 05:02:47;;;;;;;16.80;9.45;;;;;;;12.12;100.00;100971.53;4999256;28;20046;-73
2023/05/10 05:05:13;;;;;;;16.10;8.82;;;;;;;12.12;100.00;100978.56;4999440;28;20553;-73
2023/05/10 05:07:38;;;;;;;13.75;8.07;;;;;;;12.11;100.00;100975.06;5014394;28;20072;-73
2023/05/10 05:10:08;;;;;;;13.52;7.55;;;;;;;12.12;100.00;100982.03;5018765;28;20212;-73
2023/05/10 05:12:34;;;;;;;9.18;6.55;;;;;;;12.12;100.00;100983.81;5021507;28;20041;-73
2023/05/10 05:14:59;;;;;;;9.75;6.35;;;;;;;12.13;100.00;100991.59;5021871;28;20056;-73
2023/05/10 05:17:25;;;;;;;9.23;6.28;;;;;;;12.14;100.00;100981.97;5029219;28;20201;-73
2023/05/10 05:19:50;;;;;;;7.10;5.35;;;;;;;12.14;100.00;101001.19;5024078;28;20101;-73
2023/05/10 05:22:16;;;;;;;7.25;4.57;;;;;;;12.14;100.00;100993.31;5022393;28;20037;-73
2023/05/10 05:24:41;;;;;;;6.40;4.68;;;;;;;12.15;100.00;101002.03;5020934;28;20050;-73
2023/05/10 05:27:07;;;;;;;5.88;4.90;;;;;;;12.14;100.00;100998.56;5021269;28;20030;-73
2023/05/10 05:29:32;;;;;;;4.65;4.07;;;;;;;12.15;100.00;101008.16;5021189;28;20071;-73
2023/05/10 05:31:57;;;;;;;4.68;3.75;;;;;;;12.15;100.00;101008.16;5019857;28;20049;-73
2023/05/10 05:34:24;;;;;;;4.30;3.42;;;;;;;12.16;100.00;101004.59;5020924;28;20144;-73
2023/05/10 05:36:49;;;;;;;5.82;3.50;;;;;;;12.16;100.00;101009.84;5020526;28;20042;-73
2023/05/10 05:39:15;;;;;;;3.80;3.40;;;;;;;12.14;100.00;101009.06;5020628;28;20110;-73
2023/05/10 05:41:40;;;;;;;3.00;2.70;;;;;;;12.13;100.00;101015.22;5019040;28;20108;-73
2023/05/10 05:44:06;;;;;;;2.70;2.50;;;;;;;12.12;100.00;101015.31;5021535;28;20065;-73
2023/05/10 05:46:31;;;;;;;2.83;2.63;;;;;;;12.13;100.00;101012.59;5021599;28;20103;-73
2023/05/10 05:48:57;;;;;;;2.70;2.50;;;;;;;12.14;100.00;101018.72;5026953;28;20348;-73
2023/05/10 05:51:22;;;;;;;3.15;2.83;;;;;;;12.12;100.00;101010.91;5024115;28;20092;-73
2023/05/10 05:53:47;;;;;;;2.75;2.55;;;;;;;12.14;100.00;101027.44;5024389;28;20096;-73
2023/05/10 05:56:13;;;;;;;3.03;2.83;;;;;;;12.14;100.00;101021.34;5040188;28;20037;-73
2023/05/10 05:58:39;;;;;;;2.53;2.33;;;;;;;12.15;100.00;101023.03;5020958;28;20034;-73
2023/05/10 06:01:04;;;;;;;2.47;2.28;;;;;;;12.16;100.00;101022.13;5021127;28;20041;-73
2023/05/10 06:03:29;;;;;;;3.38;3.00;;;;;;;12.17;100.00;101023.81;5019861;28;20119;-73
2023/05/10 06:05:55;;;;;;;3.53;3.33;;;;;;;12.18;100.00;101022.91;5025595;28;20049;-73
2023/05/10 06:08:20;;;;;;;5.00;4.60;;;;;;;12.17;100.00;101024.69;5018174;28;20221;-73
2023/05/10 06:10:46;;;;;;;6.35;5.10;;;;;;;12.17;100.00;101032.56;5022057;28;20344;-73
2023/05/10 06:13:11;;;;;;;5.60;5.15;;;;;;;12.17;100.00;101032.56;5013334;28;20050;-73
2023/05/10 06:15:37;;;;;;;5.95;5.45;;;;;;;12.16;100.00;101028.22;5023235;28;20376;-73
2023/05/10 06:18:03;;;;;;;5.40;4.93;;;;;;;12.17;100.00;101026.44;5020468;28;20045;-73
2023/05/10 06:20:28;;;;;;;5.78;5.25;;;;;;;12.17;100.00;101031.69;5018012;28;20053;-73
2023/05/10 06:22:54;;;;;;;4.97;4.60;;;;;;;12.18;100.00;101026.38;5019673;28;20121;-73
2023/05/10 06:25:19;;;;;;;6.38;5.60;;;;;;;12.21;100.00;101030.66;5017282;28;20045;-73
2023/05/10 06:27:45;;;;;;;5.90;5.40;;;;;;;12.24;100.00;101033.13;5019400;28;20030;-73
2023/05/10 06:30:13;;;;;;;5.95;5.50;;;;;;;12.26;100.00;101033.91;5019584;28;20321;-73
2023/05/10 06:32:38;;;;;;;6.85;6.18;;;;;;;12.28;100.00;101038.19;5018154;28;20046;-74
2023/05/10 06:35:04;;;;;;;5.95;5.35;;;;;;;12.32;100.00;101036.28;5018983;28;20341;-73
2023/05/10 06:37:29;;;;;;;5.50;5.00;;;;;;;12.34;100.00;101038.84;5016070;28;20041;-73
2023/05/10 06:39:55;;;;;;;6.22;5.63;;;;;;;12.35;100.00;101037.91;5015417;28;20046;-73
2023/05/10 06:42:20;;;;;;;6.30;5.80;;;;;;;12.35;100.00;101038.78;5019178;28;20338;-75
2023/05/10 06:44:45;;;;;;;5.55;5.07;;;;;;;12.37;100.00;101041.31;5018941;28;20062;-75
2023/05/10 06:47:11;;;;;;;5.20;4.70;;;;;;;12.37;100.00;101039.56;5016386;28;20388;-75
2023/05/10 06:49:36;;;;;;;4.93;4.47;;;;;;;12.37;100.00;101039.56;5018832;28;20045;-75
2023/05/10 06:52:02;;;;;;;4.05;3.75;;;;;;;12.41;100.00;101045.53;5019343;28;20372;-75
2023/05/10 06:54:27;;;;;;;5.53;4.95;;;;;;;12.42;100.00;101045.44;5017937;28;20040;-75
2023/05/10 06:56:53;;;;;;;5.18;4.68;;;;;;;12.45;100.00;101040.03;5018354;28;20049;-75
2023/05/10 06:59:19;;;;;;;4.63;3.95;;;;;;;12.47;100.00;101048.69;5018705;28;20345;-75
2023/05/10 07:01:44;;;;;;;4.97;4.18;;;;;;;12.49;100.00;101043.38;5018317;28;20060;-75
2023/05/10 07:04:10;;;;;;;7.90;5.00;;;;;;;12.50;100.00;101052.97;5014094;28;20048;-75
2023/05/10 07:06:35;;;;;;;6.35;4.88;;;;;;;12.52;100.00;101043.25;5016482;28;20073;-75
2023/05/10 07:09:01;;;;;;;4.57;4.10;;;;;;;12.53;100.00;101050.19;5017023;28;20065;-75
2023/05/10 07:11:26;;;;;;;4.28;3.85;;;;;;;12.54;100.00;101061.59;5017650;28;20291;-75
2023/05/10 07:13:52;;;;;;;6.15;4.80;;;;;;;12.55;100.00;101065.91;5016698;28;20348;-75
2023/05/10 07:16:17;;;;;;;11.82;5.45;;;;;;;12.56;100.00;101059.72;5019392;28;20107;-75
2023/05/10 07:18:43;;;;;;;5.68;4.85;;;;;;;12.56;100.00;101059.72;5015980;28;20123;-75
2023/05/10 07:21:08;;;;;;;8.32;5.93;;;;;;;12.56;100.00;101062.38;5015052;28;20037;-75
2023/05/10 07:23:33;;;;;;;6.47;5.65;;;;;;;12.57;100.00;101066.69;5017997;28;20321;-75
2023/05/10 07:25:59;;;;;;;5.22;4.80;;;;;;;12.57;100.00;101066.69;5016181;28;20107;-75
2023/05/10 07:28:24;;;;;;;6.65;5.50;;;;;;;12.57;100.00;101064.91;5015394;28;20343;-75
2023/05/10 07:30:50;;;;;;;4.90;4.43;;;;;;;12.58;100.00;101071.03;5016943;28;20105;-75
2023/05/10 07:33:15;;;;;;;5.47;4.97;;;;;;;12.60;100.00;101069.16;5016682;28;20252;-75
2023/05/10 07:35:42;;;;;;;4.80;4.20;;;;;;;12.60;100.00;101069.16;5018792;28;20037;-75
2023/05/10 07:38:07;;;;;;;6.45;5.80;;;;;;;12.61;100.00;101070.88;5016063;28;20132;-75
2023/05/10 07:40:33;;;;;;;7.22;6.07;;;;;;;12.62;100.00;101075.22;5016934;28;20064;-75
2023/05/10 07:42:59;;;;;;;7.43;5.72;;;;;;;12.61;100.00;101077.00;5016914;28;20049;-75
2023/05/10 07:45:25;;;;;;;7.53;5.90;;;;;;;12.61;100.00;101076.16;5017372;28;20069;-75
2023/05/10 07:47:50;;;;;;;7.65;5.13;;;;;;;12.60;100.00;101077.91;5017054;28;20037;-75
2023/05/10 07:50:15;;;;;;;7.15;5.82;;;;;;;12.58;100.00;101084.16;5017125;28;20337;-75
2023/05/10 07:52:41;;;;;;;7.10;4.65;;;;;;;12.58;100.00;101081.53;5017664;28;20034;-75
2023/05/10 07:55:07;;;;;;;4.97;4.47;;;;;;;12.58;100.00;101077.13;5018965;28;20048;-75
2023/05/10 07:57:34;;;;;;;4.60;4.20;;;;;;;12.60;100.00;101077.91;5018004;28;20068;-75
2023/05/10 07:59:59;;;;;;;4.30;3.90;;;;;;;12.61;100.00;101081.41;5017946;28;20049;-75
2023/05/10 08:02:25;;;;;;;4.13;3.83;;;;;;;12.64;100.00;101083.88;5017844;28;20233;-75
2023/05/10 08:04:50;;;;;;;3.72;3.42;;;;;;;12.64;100.00;101084.75;5016499;28;20042;-75
2023/05/10 08:07:16;;;;;;;3.95;3.65;;;;;;;12.65;100.00;101081.19;5016330;28;20033;-75
2023/05/10 08:09:41;;;;;;;4.10;3.70;;;;;;;12.67;100.00;101092.47;5017608;28;20068;-75
2023/05/10 08:12:06;;;;;;;6.97;4.93;;;;;;;12.70;100.00;101098.50;5018444;28;20042;-75
2023/05/10 08:14:32;;;;;;;5.63;4.45;;;;;;;12.69;100.00;101087.16;5017375;28;20092;-75
2023/05/10 08:16:57;;;;;;;4.30;3.90;;;;;;;12.72;100.00;101094.06;5018319;28;20041;-75
2023/05/10 08:19:23;;;;;;;4.70;4.00;;;;;;;12.72;100.00;101092.28;5017694;28;20245;-75
2023/05/10 08:21:49;;;;;;;5.93;4.50;;;;;;;12.74;100.00;101098.31;5017461;28;20034;-75
2023/05/10 08:24:14;;;;;;;5.85;5.25;;;;;;;12.75;100.00;101104.41;5017274;28;20376;-75
2023/05/10 08:26:40;;;;;;;4.80;4.32;;;;;;;12.76;100.00;101101.72;5016902;28;20108;-75
2023/05/10 08:29:05;;;;;;;5.43;4.35;;;;;;;12.77;100.00;101113.06;5016044;28;20357;-75
2023/05/10 08:31:31;;;;;;;4.80;4.40;;;;;;;12.79;100.00;101109.47;5017435;28;20053;-75
2023/05/10 08:33:56;;;;;;;5.57;4.68;;;;;;;12.80;100.00;101115.56;5017154;28;20026;-75
2023/05/10 08:36:24;;;;;;;4.22;3.72;;;;;;;12.81;100.00;101106.78;5017388;28;20049;-75
2023/05/10 08:38:52;;;;;;;7.45;4.65;;;;;;;12.82;100.00;101114.59;5017046;28;20268;-75
2023/05/10 08:41:20;;;;;;;6.45;4.70;;;;;;;12.83;100.00;101113.66;5028199;28;20385;-75
2023/05/10 08:43:46;;;;;;;7.80;4.57;;;;;;;12.85;100.00;101111.81;5021766;28;20041;-75
2023/05/10 08:46:17;;;;;;;8.63;4.90;;;;;;;12.87;100.00;101123.09;5019059;28;20198;-75
2023/05/10 08:48:44;;;;;;;6.00;4.75;;;;;;;12.86;100.00;101126.66;5021446;28;20301;-75
2023/05/10 08:51:13;;;;;;;7.00;4.47;;;;;;;12.89;100.00;101128.28;5021630;28;20038;-75
2023/05/10 08:53:39;;;;;;;7.68;4.18;;;;;;;12.90;100.00;101130.00;5021104;28;20348;-75
2023/05/10 08:56:05;;;;;;;4.80;4.45;;;;;;;12.92;100.00;101133.41;5022344;28;20061;-75
2023/05/10 08:58:30;;;;;;;4.30;3.80;;;;;;;12.95;100.00;101138.53;5021703;28;20042;-75
2023/05/10 09:00:57;;;;;;;4.15;3.85;;;;;;;12.95;100.00;101141.16;5021393;28;20091;-75
2023/05/10 09:03:23;;;;;;;5.38;3.67;;;;;;;12.97;100.00;101143.69;5021528;28;20237;-75
2023/05/10 09:05:49;;;;;;;4.18;3.75;;;;;;;13.00;100.00;101148.81;5020555;28;20046;-75
2023/05/10 09:08:18;;;;;;;3.97;3.58;;;;;;;13.00;100.00;101148.81;5020331;28;20045;-75
2023/05/10 09:10:44;;;;;;;5.57;3.78;;;;;;;13.02;100.00;101149.59;5020594;28;20049;-75
2023/05/10 09:13:11;;;;;;;4.22;3.92;;;;;;;13.03;100.00;101146.06;5021026;28;20037;-75
2023/05/10 09:15:37;;;;;;;3.65;3.35;;;;;;;13.04;100.00;101151.25;5021386;28;20037;-75
2023/05/10 09:18:02;;;;;;;4.20;3.90;;;;;;;13.06;100.00;101149.41;5021555;28;20044;-75
2023/05/10 09:20:28;;;;;;;3.70;3.40;;;;;;;13.06;100.00;101156.41;5020845;28;20037;-75
2023/05/10 09:22:53;;;;;;;3.67;3.38;;;;;;;13.07;100.00;101153.72;5020829;28;20046;-75
2023/05/10 09:25:19;;;;;;;4.97;3.97;;;;;;;13.10;100.00;101155.38;5020574;28;20054;-75
2023/05/10 09:27:46;;;;;;;4.40;3.42;;;;;;;13.13;100.00;101154.38;5019161;28;20061;-75
2023/05/10 09:30:25;;;;;;;3.60;3.35;;;;;;;13.15;100.00;101158.66;5020698;28;20348;-75
2023/05/10 09:32:51;;;;;;;4.68;4.28;;;;;;;13.18;100.00;101162.91;5020639;28;20191;-75
2023/05/10 09:35:19;;;;;;;5.00;3.80;;;;;;;13.21;100.00;101160.13;5020811;28;20385;-75
2023/05/10 09:37:48;;;;;;;6.18;5.00;;;;;;;13.24;100.00;101167.88;5015493;28;20049;-75
2023/05/10 09:40:18;;;;;;;9.25;5.93;;;;;;;13.26;100.00;101171.28;5020575;28;20371;-75
2023/05/10 09:43:10;;;;;;;5.63;5.13;;;;;;;13.29;100.00;101171.13;5033508;28;20034;-75
2023/05/10 09:45:36;;;;;;;5.07;4.65;;;;;;;13.32;100.00;101176.31;5020551;28;20557;-75
2023/05/10 09:48:03;;;;;;;7.72;5.63;;;;;;;13.34;100.00;101174.44;5020653;28;20052;-75
2023/05/10 09:50:29;;;;;;;5.60;5.10;;;;;;;13.39;100.00;101174.25;5020668;28;20313;-75
2023/05/10 09:53:03;;;;;;;7.18;5.88;;;;;;;13.40;100.00;101176.78;5020095;28;20284;-75
2023/05/10 09:55:44;;;;;;;6.95;5.85;;;;;;;13.44;100.00;101182.75;5020394;28;20038;-75
2023/05/10 09:58:10;;;;;;;8.10;5.80;;;;;;;13.48;100.00;101181.69;5019650;28;20030;-75
2023/05/10 10:00:37;;;;;;;8.23;5.93;;;;;;;13.52;100.00;101192.94;5020262;28;20288;-75
2023/05/10 10:03:04;;;;;;;6.78;5.80;;;;;;;13.56;100.00;101186.59;5020055;28;20096;-75
2023/05/10 10:05:31;;;;;;;5.38;4.88;;;;;;;13.59;100.00;101194.34;5020414;28;20041;-75
2023/05/10 10:08:00;;;;;;;9.38;5.20;;;;;;;13.62;100.00;101183.66;5019455;28;20113;-75
2023/05/10 10:10:27;;;;;;;4.78;4.35;;;;;;;13.66;100.00;101190.50;5020101;28;20347;-75
2023/05/10 10:12:53;;;;;;;5.50;4.20;;;;;;;13.67;100.00;101191.34;5020113;28;20325;-75
2023/05/10 10:15:20;;;;;;;4.88;4.40;;;;;;;13.70;100.00;101186.78;5019819;28;20375;-75
2023/05/10 10:17:46;;;;;;;6.95;4.70;;;;;;;13.72;100.00;101189.34;5019901;28;20050;-75
2023/05/10 10:20:12;;;;;;;4.10;3.80;;;;;;;13.73;100.00;101191.88;5019834;28;20061;-75
2023/05/10 10:22:37;;;;;;;3.70;3.40;;;;;;;13.75;100.00;101191.81;5019530;28;20069;-75
2023/05/10 10:25:05;;;;;;;6.07;4.45;;;;;;;13.78;100.00;101195.16;5019324;28;20064;-75
2023/05/10 10:27:44;;;;;;;5.80;5.10;;;;;;;13.79;100.00;101198.66;5019470;28;20073;-75
2023/05/10 10:30:22;;;;;;;7.88;5.80;;;;;;;13.77;100.00;101201.34;5019503;28;20417;-75
2023/05/10 10:33:38;;;;;;;5.95;5.35;;;;;;;13.82;100.00;101211.66;5019634;28;20053;-75
2023/05/10 10:36:04;;;;;;;4.78;4.32;;;;;;;13.85;100.00;101208.03;5010312;28;20049;-75
2023/05/10 10:38:48;;;;;;;5.93;4.30;;;;;;;13.87;100.00;101209.66;5019410;28;20030;-75
2023/05/10 10:41:34;;;;;;;7.45;4.50;;;;;;;13.87;100.00;101209.66;5020144;28;20288;-75
2023/05/10 10:44:33;;;;;;;6.00;5.40;;;;;;;13.90;100.00;101220.03;5020083;28;20316;-75
2023/05/10 10:47:11;;;;;;;5.32;4.43;;;;;;;13.92;100.00;101212.06;5007216;28;20240;-75
2023/05/10 10:49:39;;;;;;;5.22;4.82;;;;;;;13.94;100.00;101213.69;5018934;28;20071;-75
2023/05/10 10:52:26;;;;;;;6.25;5.40;;;;;;;13.95;100.00;101212.78;5019208;28;20117;-75
2023/05/10 10:54:59;;;;;;;5.18;4.78;;;;;;;13.96;100.00;101211.84;5018957;28;20034;-75
2023/05/10 10:57:26;;;;;;;4.57;4.18;;;;;;;13.98;100.00;101220.50;5019530;28;20046;-75
2023/05/10 10:59:53;;;;;;;4.70;4.20;;;;;;;13.98;99.98;101222.28;5018697;28;20064;-75
2023/05/10 11:02:45;;;;;;;6.85;4.70;;;;;;;13.95;99.66;101218.03;5018963;28;20337;-75
2023/05/10 11:05:32;;;;;;;3.92;3.63;;;;;;;13.95;100.00;101220.69;5019196;28;20029;-75
2023/05/10 11:07:59;;;;;;;4.80;4.32;;;;;;;13.95;100.00;101225.06;5018411;28;20061;-75
2023/05/10 11:10:26;;;;;;;4.47;4.18;;;;;;;13.94;99.93;101223.38;5017836;28;20395;-75
2023/05/10 11:13:02;;;;;;;5.97;3.72;;;;;;;13.93;99.97;101216.41;5018857;28;20050;-75